createdAt,value
2023-01-21T00:00:12.318Z,21.40
2023-01-21T00:02:39.096Z,22.07
2023-01-21T00:05:06.212Z,21.47
2023-01-21T00:07:32.929Z,24.07
2023-01-21T00:09:59.603Z,23.63
2023-01-21T00:12:26.343Z,25.93
2023-01-21T00:14:53.018Z,22.77
2023-01-21T00:17:19.721Z,22.67
2023-01-21T00:19:46.482Z,20.90
2023-01-21T00:22:13.649Z,23.60
2023-01-21T00:24:40.835Z,21.73
2023-01-21T00:27:08.003Z,21.30
2023-01-21T00:29:35.148Z,23.33
2023-01-21T00:32:02.223Z,23.20
2023-01-21T00:34:29.392Z,21.57
2023-01-21T00:36:56.691Z,21.63
2023-01-21T00:39:23.917Z,22.07
2023-01-21T00:41:51.136Z,22.17
2023-01-21T00:44:19.232Z,21.37
2023-01-21T00:46:46.347Z,21.93
2023-01-21T00:49:13.486Z,21.40
2023-01-21T00:51:40.584Z,23.43
2023-01-21T00:54:07.736Z,20.73
2023-01-21T00:56:34.890Z,21.83
2023-01-21T00:59:02.100Z,20.77
2023-01-21T01:01:33.978Z,23.07
2023-01-21T01:04:01.076Z,22.40
2023-01-21T01:06:28.257Z,22.07
2023-01-21T01:08:58.476Z,21.03
2023-01-21T01:11:26.870Z,21.97
2023-01-21T01:13:54.775Z,21.60
2023-01-21T01:16:22.353Z,21.63
2023-01-21T01:18:49.876Z,21.13
2023-01-21T01:21:19.304Z,21.30
2023-01-21T01:23:46.717Z,20.60
2023-01-21T01:26:16.246Z,22.00
2023-01-21T01:28:43.657Z,22.97
2023-01-21T01:31:13.637Z,21.83
2023-01-21T01:33:41.073Z,22.13
2023-01-21T01:36:17.083Z,21.83
2023-01-21T01:38:44.424Z,21.80
2023-01-21T01:41:16.961Z,22.07
2023-01-21T01:44:04.099Z,23.33
2023-01-21T01:46:32.921Z,21.17
2023-01-21T01:49:04.608Z,21.67
2023-01-21T01:51:40.774Z,21.53
2023-01-21T01:54:08.623Z,21.73
2023-01-21T01:56:36.085Z,22.20
2023-01-21T01:59:03.231Z,22.63
2023-01-21T02:01:30.109Z,22.87
2023-01-21T02:04:00.817Z,22.43
2023-01-21T02:06:27.792Z,23.00
2023-01-21T02:08:56.178Z,22.73
2023-01-21T02:11:23.156Z,24.13
2023-01-21T02:13:56.561Z,23.43
2023-01-21T02:16:51.108Z,24.77
2023-01-21T02:19:32.999Z,23.90
2023-01-21T02:22:27.473Z,24.10
2023-01-21T02:24:57.144Z,23.10
2023-01-21T02:27:38.989Z,23.43
2023-01-21T02:30:06.199Z,22.57
2023-01-21T02:32:33.326Z,21.70
2023-01-21T02:35:19.286Z,23.83
2023-01-21T02:37:54.895Z,21.97
2023-01-21T02:40:33.112Z,23.00
2023-01-21T02:43:09.169Z,22.10
2023-01-21T02:45:43.230Z,22.37
2023-01-21T02:48:18.639Z,24.97
2023-01-21T02:50:46.894Z,21.87
2023-01-21T02:53:25.979Z,24.50
2023-01-21T02:55:53.265Z,24.60
2023-01-21T02:58:22.296Z,24.00
2023-01-21T03:01:10.833Z,22.77
2023-01-21T03:03:56.743Z,23.30
2023-01-21T03:06:26.859Z,24.00
2023-01-21T03:08:56.708Z,23.00
2023-01-21T03:11:24.060Z,24.03
2023-01-21T03:14:35.354Z,23.40
2023-01-21T03:17:07.095Z,22.63
2023-01-21T03:19:43.039Z,22.83
2023-01-21T03:22:13.917Z,22.73
2023-01-21T03:24:43.050Z,23.17
2023-01-21T03:27:10.933Z,23.93
2023-01-21T03:29:42.125Z,22.43
2023-01-21T03:32:11.813Z,23.60
2023-01-21T03:34:42.063Z,22.00
2023-01-21T03:37:16.402Z,22.40
2023-01-21T03:39:53.904Z,21.97
2023-01-21T03:42:21.244Z,23.73
2023-01-21T03:44:48.333Z,21.93
2023-01-21T03:47:25.341Z,23.30
2023-01-21T03:49:52.416Z,23.70
2023-01-21T03:52:21.838Z,22.53
2023-01-21T03:54:49.302Z,24.70
2023-01-21T03:57:16.644Z,23.07
2023-01-21T03:59:44.100Z,23.87
2023-01-21T04:02:11.351Z,22.77
2023-01-21T04:04:38.621Z,22.73
2023-01-21T04:07:06.006Z,23.57
2023-01-21T04:09:33.170Z,23.47
2023-01-21T04:12:00.543Z,22.53
2023-01-21T04:14:27.735Z,21.87
2023-01-21T04:16:55.703Z,23.30
2023-01-21T04:19:22.876Z,24.20
2023-01-21T04:21:49.985Z,24.27
2023-01-21T04:24:17.137Z,22.07
2023-01-21T04:26:44.353Z,23.27
2023-01-21T04:29:11.535Z,23.93
2023-01-21T04:31:38.678Z,23.07
2023-01-21T04:34:05.803Z,24.87
2023-01-21T04:36:33.003Z,22.17
2023-01-21T04:39:00.098Z,23.70
2023-01-21T04:41:27.192Z,22.70
2023-01-21T04:43:54.587Z,24.33
2023-01-21T04:46:21.683Z,23.10
2023-01-21T04:48:48.785Z,24.90
2023-01-21T04:51:15.932Z,22.57
2023-01-21T04:53:43.047Z,23.90
2023-01-21T04:56:10.233Z,25.40
2023-01-21T04:58:37.357Z,24.80
2023-01-21T05:01:04.536Z,23.33
2023-01-21T05:03:31.681Z,22.90
2023-01-21T05:05:58.859Z,24.00
2023-01-21T05:08:26.024Z,24.90
2023-01-21T05:10:53.110Z,24.40
2023-01-21T05:13:20.358Z,25.37
2023-01-21T05:15:47.525Z,24.90
2023-01-21T05:18:14.634Z,25.07
2023-01-21T05:20:41.843Z,22.87
2023-01-21T05:23:08.922Z,24.00
2023-01-21T05:25:36.038Z,25.40
2023-01-21T05:28:03.136Z,31.13
2023-01-21T05:30:30.301Z,25.13
2023-01-21T05:32:57.446Z,22.73
2023-01-21T05:35:24.813Z,25.03
2023-01-21T05:37:51.936Z,23.00
2023-01-21T05:40:19.756Z,23.47
2023-01-21T05:42:47.525Z,24.83
2023-01-21T05:45:14.890Z,25.03
2023-01-21T05:47:42.054Z,24.80
2023-01-21T05:50:10.051Z,25.60
2023-01-21T05:52:37.158Z,24.70
2023-01-21T05:55:04.541Z,23.33
2023-01-21T05:57:32.321Z,25.60
2023-01-21T05:59:59.646Z,25.57
2023-01-21T06:02:26.998Z,26.20
2023-01-21T06:04:54.130Z,24.13
2023-01-21T06:07:21.376Z,24.57
2023-01-21T06:09:48.566Z,23.73
2023-01-21T06:12:15.667Z,23.77
2023-01-21T06:14:42.779Z,23.23
2023-01-21T06:17:09.910Z,25.90
2023-01-21T06:19:36.997Z,23.73
2023-01-21T06:22:04.196Z,23.40
2023-01-21T06:24:31.363Z,23.30
2023-01-21T06:26:58.628Z,24.17
2023-01-21T06:29:25.746Z,24.83
2023-01-21T06:31:52.980Z,24.37
2023-01-21T06:34:20.235Z,23.80
2023-01-21T06:36:47.332Z,24.37
2023-01-21T06:39:14.467Z,25.73
2023-01-21T06:41:41.692Z,25.63
2023-01-21T06:44:08.963Z,25.67
2023-01-21T06:46:36.236Z,24.53
2023-01-21T06:49:03.394Z,25.10
2023-01-21T06:51:30.537Z,23.87
2023-01-21T06:53:57.683Z,23.53
2023-01-21T06:56:24.819Z,23.57
2023-01-21T06:58:52.040Z,24.57
2023-01-21T07:01:19.854Z,24.40
2023-01-21T07:03:47.118Z,24.50
2023-01-21T07:06:14.264Z,27.07
2023-01-21T07:08:41.382Z,26.63
2023-01-21T07:11:08.551Z,27.47
2023-01-21T07:13:35.838Z,26.77
2023-01-21T07:16:05.959Z,27.07
2023-01-21T07:18:33.991Z,26.97
2023-01-21T07:21:01.253Z,26.07
2023-01-21T07:23:30.052Z,24.93
2023-01-21T07:25:57.848Z,26.07
2023-01-21T07:28:25.088Z,26.77
2023-01-21T07:30:52.233Z,27.27
2023-01-21T07:33:19.452Z,25.27
2023-01-21T07:35:49.462Z,26.53
2023-01-21T07:38:16.613Z,27.33
2023-01-21T07:40:43.759Z,26.50
2023-01-21T07:43:11.040Z,26.70
2023-01-21T07:45:38.129Z,28.73
2023-01-21T07:48:05.559Z,26.00
2023-01-21T07:50:32.696Z,26.53
2023-01-21T07:53:00.163Z,27.40
2023-01-21T07:55:28.013Z,26.13
2023-01-21T07:57:58.651Z,26.93
2023-01-21T08:00:29.529Z,25.87
2023-01-21T08:02:57.037Z,27.60
2023-01-21T08:05:25.232Z,26.23
2023-01-21T08:07:53.053Z,26.77
2023-01-21T08:10:22.166Z,27.33
2023-01-21T08:12:49.302Z,28.37
2023-01-21T08:15:16.836Z,26.80
2023-01-21T08:17:44.833Z,28.90
2023-01-21T08:20:12.622Z,27.27
2023-01-21T08:22:40.046Z,33.03
2023-01-21T08:25:07.583Z,28.80
2023-01-21T08:27:34.674Z,27.23
2023-01-21T08:30:01.969Z,26.70
2023-01-21T08:32:31.615Z,28.53
2023-01-21T08:34:58.800Z,25.67
2023-01-21T08:37:26.067Z,28.10
2023-01-21T08:39:53.125Z,28.07
2023-01-21T08:42:20.585Z,27.97
2023-01-21T08:44:50.896Z,27.47
2023-01-21T08:47:18.504Z,28.10
2023-01-21T08:49:45.681Z,28.23
2023-01-21T08:52:13.463Z,28.77
2023-01-21T08:54:41.420Z,30.10
2023-01-21T08:57:08.547Z,27.47
2023-01-21T08:59:35.684Z,30.13
2023-01-21T09:02:02.929Z,29.33
2023-01-21T09:04:30.095Z,28.63
2023-01-21T09:06:57.290Z,28.57
2023-01-21T09:09:24.439Z,28.60
2023-01-21T09:11:52.561Z,28.10
2023-01-21T09:14:20.594Z,26.63
2023-01-21T09:16:50.657Z,25.93
2023-01-21T09:19:17.912Z,27.63
2023-01-21T09:21:45.147Z,27.07
2023-01-21T09:24:12.465Z,26.43
2023-01-21T09:26:45.307Z,26.07
2023-01-21T09:29:12.644Z,26.27
2023-01-21T09:31:39.954Z,27.13
2023-01-21T09:34:08.117Z,26.07
2023-01-21T09:36:35.793Z,26.43
2023-01-21T09:39:03.081Z,27.10
2023-01-21T09:41:46.137Z,27.00
2023-01-21T09:44:13.338Z,27.37
2023-01-21T09:46:47.595Z,26.83
2023-01-21T09:49:18.223Z,31.97
2023-01-21T09:51:52.356Z,27.97
2023-01-21T09:54:25.288Z,27.43
2023-01-21T09:57:05.548Z,26.03
2023-01-21T09:59:35.676Z,27.43
2023-01-21T10:02:04.992Z,26.77
2023-01-21T10:04:32.190Z,27.23
2023-01-21T10:07:11.065Z,26.00
2023-01-21T10:09:50.036Z,25.87
2023-01-21T10:12:20.182Z,26.33
2023-01-21T10:14:52.728Z,27.40
2023-01-21T10:17:19.869Z,26.80
2023-01-21T10:19:53.638Z,25.77
2023-01-21T10:22:28.377Z,28.00
2023-01-21T10:25:01.563Z,28.63
2023-01-21T10:27:30.893Z,33.37
2023-01-21T10:29:59.994Z,27.37
2023-01-21T10:32:28.143Z,26.27
2023-01-21T10:34:56.439Z,26.57
2023-01-21T10:37:33.556Z,26.90
2023-01-21T10:40:09.569Z,26.03
2023-01-21T10:42:41.907Z,25.37
2023-01-21T10:45:12.175Z,26.17
2023-01-21T10:47:48.350Z,26.37
2023-01-21T10:50:24.364Z,27.07
2023-01-21T10:52:56.362Z,24.93
2023-01-21T10:55:42.524Z,27.43
2023-01-21T10:58:32.939Z,26.83
2023-01-21T11:01:03.102Z,27.47
2023-01-21T11:03:30.357Z,24.97
2023-01-21T11:06:02.767Z,28.67
2023-01-21T11:08:29.929Z,24.93
2023-01-21T11:10:57.809Z,24.90
2023-01-21T11:13:24.594Z,23.43
2023-01-21T11:15:56.574Z,23.50
2023-01-21T11:18:35.071Z,25.87
2023-01-21T11:21:21.390Z,25.40
2023-01-21T11:23:59.614Z,23.80
2023-01-21T11:26:28.372Z,23.53
2023-01-21T11:29:13.459Z,24.17
2023-01-21T11:31:45.293Z,23.70
2023-01-21T11:34:19.843Z,24.10
2023-01-21T11:36:57.104Z,23.47
2023-01-21T11:39:28.868Z,21.93
2023-01-21T11:41:57.812Z,21.93
2023-01-21T11:44:25.351Z,21.20
2023-01-21T11:46:52.855Z,20.93
2023-01-21T11:49:28.856Z,21.13
2023-01-21T11:52:17.850Z,21.77
2023-01-21T11:54:45.476Z,20.03
2023-01-21T11:57:27.750Z,20.77
2023-01-21T11:59:59.571Z,21.77
2023-01-21T12:02:31.306Z,19.73
2023-01-21T12:04:58.475Z,19.53
2023-01-21T12:07:31.493Z,20.10
2023-01-21T12:10:03.944Z,21.27
2023-01-21T12:12:39.925Z,20.43
2023-01-21T12:15:23.167Z,18.87
2023-01-21T12:18:02.158Z,19.00
2023-01-21T12:20:34.125Z,17.83
2023-01-21T12:23:16.315Z,19.77
2023-01-21T12:26:09.680Z,19.67
2023-01-21T12:28:39.885Z,18.27
2023-01-21T12:31:10.074Z,19.33
2023-01-21T12:33:45.494Z,19.33
2023-01-21T12:36:12.576Z,18.30
2023-01-21T12:38:41.560Z,17.93
2023-01-21T12:41:14.937Z,18.00
2023-01-21T12:43:47.169Z,17.93
2023-01-21T12:46:23.268Z,18.47
2023-01-21T12:48:56.650Z,17.93
2023-01-21T12:51:23.837Z,18.97
2023-01-21T12:54:09.640Z,17.70
2023-01-21T12:56:48.788Z,21.33
2023-01-21T12:59:17.921Z,18.30
2023-01-21T13:01:54.237Z,16.57
2023-01-21T13:04:30.087Z,16.40
2023-01-21T13:07:01.278Z,16.03
2023-01-21T13:09:49.936Z,16.60
2023-01-21T13:12:21.003Z,15.97
2023-01-21T13:14:51.827Z,16.87
2023-01-21T13:17:24.225Z,17.10
2023-01-21T13:19:51.554Z,17.57
2023-01-21T13:22:21.766Z,18.70
2023-01-21T13:24:54.786Z,17.40
2023-01-21T13:27:25.321Z,16.13
2023-01-21T13:29:58.168Z,19.23
2023-01-21T13:32:43.923Z,17.73
2023-01-21T13:35:40.488Z,17.97
2023-01-21T13:38:16.908Z,16.13
2023-01-21T13:40:50.213Z,15.57
2023-01-21T13:43:17.332Z,17.50
2023-01-21T13:45:54.919Z,16.17
2023-01-21T13:48:37.070Z,15.97
2023-01-21T13:51:24.736Z,15.10
2023-01-21T13:54:03.937Z,16.43
2023-01-21T13:56:49.001Z,16.17
2023-01-21T13:59:22.240Z,16.40
2023-01-21T14:01:57.730Z,15.60
2023-01-21T14:04:24.896Z,15.50
2023-01-21T14:06:58.261Z,15.97
2023-01-21T14:09:50.844Z,15.47
2023-01-21T14:12:44.830Z,16.60
2023-01-21T14:15:49.345Z,14.60
2023-01-21T14:18:36.445Z,15.30
2023-01-21T14:21:37.850Z,16.97
2023-01-21T14:24:17.123Z,15.00
2023-01-21T14:27:22.750Z,14.67
2023-01-21T14:29:49.806Z,15.47
2023-01-21T14:32:32.051Z,13.77
2023-01-21T14:35:09.067Z,13.00
2023-01-21T14:37:46.992Z,13.53
2023-01-21T14:40:22.330Z,13.33
2023-01-21T14:42:51.086Z,12.83
2023-01-21T14:45:23.555Z,12.67
2023-01-21T14:47:55.560Z,11.07
2023-01-21T14:50:51.698Z,11.13
2023-01-21T14:53:25.749Z,10.67
2023-01-21T14:56:16.142Z,10.70
2023-01-21T14:59:02.419Z,13.80
2023-01-21T15:01:35.230Z,23.97
2023-01-21T15:04:07.380Z,12.13
2023-01-21T15:06:39.723Z,11.53
2023-01-21T15:09:09.301Z,12.57
2023-01-21T15:11:40.641Z,12.13
2023-01-21T15:14:19.866Z,11.93
2023-01-21T15:16:47.910Z,12.23
2023-01-21T15:19:18.984Z,12.63
2023-01-21T15:22:20.090Z,12.37
2023-01-21T15:25:20.877Z,15.40
2023-01-21T15:28:24.987Z,13.03
2023-01-21T15:31:00.813Z,14.67
2023-01-21T15:33:29.409Z,14.43
2023-01-21T15:35:56.660Z,12.93
2023-01-21T15:38:24.902Z,14.90
2023-01-21T15:40:53.473Z,14.93
2023-01-21T15:43:31.714Z,14.03
2023-01-21T15:46:16.371Z,13.93
2023-01-21T15:48:45.817Z,13.20
2023-01-21T15:51:39.166Z,13.97
2023-01-21T15:54:20.937Z,13.57
2023-01-21T15:57:12.068Z,12.37
2023-01-21T16:00:05.021Z,12.27
2023-01-21T16:02:36.136Z,12.87
2023-01-21T16:05:26.274Z,12.53
2023-01-21T16:07:53.114Z,13.07
2023-01-21T16:10:39.891Z,12.97
2023-01-21T16:13:33.961Z,13.47
2023-01-21T16:16:19.301Z,12.90
2023-01-21T16:19:00.406Z,13.70
2023-01-21T16:21:36.552Z,16.25
2023-01-21T16:24:10.194Z,13.13
2023-01-21T16:26:37.052Z,13.13
2023-01-21T16:29:15.776Z,10.63
2023-01-21T16:31:50.778Z,10.30
2023-01-21T16:34:31.128Z,9.43
2023-01-21T16:36:58.372Z,10.03
2023-01-21T16:39:26.069Z,10.57
2023-01-21T16:42:04.583Z,9.33
2023-01-21T16:44:35.838Z,8.30
2023-01-21T16:47:03.423Z,8.27
2023-01-21T16:49:30.258Z,9.23
2023-01-21T16:52:02.266Z,8.70
2023-01-21T16:54:31.491Z,9.20
2023-01-21T16:57:00.807Z,9.77
2023-01-21T16:59:38.740Z,8.83
2023-01-21T17:02:14.942Z,9.93
2023-01-21T17:04:41.970Z,10.53
2023-01-21T17:07:15.615Z,9.80
2023-01-21T17:09:43.192Z,9.20
2023-01-21T17:12:20.766Z,9.87
2023-01-21T17:14:47.805Z,10.50
2023-01-21T17:17:21.894Z,9.93
2023-01-21T17:19:50.900Z,9.37
2023-01-21T17:22:21.151Z,9.10
2023-01-21T17:24:56.890Z,10.63
2023-01-21T17:27:24.765Z,11.07
2023-01-21T17:29:51.864Z,11.17
2023-01-21T17:32:27.102Z,10.53
2023-01-21T17:35:27.288Z,10.03
2023-01-21T17:38:02.638Z,11.87
2023-01-21T17:40:37.634Z,12.73
2023-01-21T17:43:37.473Z,11.43
2023-01-21T17:46:04.832Z,11.63
2023-01-21T17:48:35.139Z,11.47
2023-01-21T17:51:14.580Z,11.77
2023-01-21T17:53:46.280Z,11.63
2023-01-21T17:56:13.451Z,11.80
2023-01-21T17:58:49.960Z,12.77
2023-01-21T18:01:18.882Z,12.30
2023-01-21T18:03:45.765Z,12.47
2023-01-21T18:06:22.707Z,13.27
2023-01-21T18:08:51.041Z,13.13
2023-01-21T18:11:18.285Z,12.33
2023-01-21T18:13:44.981Z,13.57
2023-01-21T18:16:11.785Z,12.90
2023-01-21T18:18:39.329Z,13.30
2023-01-21T18:21:06.756Z,14.03
2023-01-21T18:23:33.495Z,14.47
2023-01-21T18:26:00.363Z,14.03
2023-01-21T18:28:28.947Z,13.47
2023-01-21T18:30:57.730Z,13.17
2023-01-21T18:33:24.958Z,13.93
2023-01-21T18:35:52.638Z,14.07
2023-01-21T18:38:26.884Z,14.80
2023-01-21T18:40:57.281Z,15.03
2023-01-21T18:43:25.713Z,14.23
2023-01-21T18:45:54.279Z,14.73
2023-01-21T18:48:27.667Z,14.37
2023-01-21T18:50:54.944Z,13.97
2023-01-21T18:53:21.852Z,14.70
2023-01-21T18:55:50.989Z,14.83
2023-01-21T18:58:17.750Z,21.37
2023-01-21T19:00:44.529Z,114.50
2023-01-21T19:03:15.237Z,20.40
2023-01-21T19:05:44.861Z,15.67
2023-01-21T19:08:16.117Z,13.80
2023-01-21T19:10:42.924Z,15.50
2023-01-21T19:13:11.319Z,14.47
2023-01-21T19:15:38.566Z,15.10
2023-01-21T19:18:12.955Z,14.70
2023-01-21T19:20:43.089Z,16.73
2023-01-21T19:23:17.815Z,16.80
2023-01-21T19:25:54.606Z,16.93
2023-01-21T19:28:22.603Z,17.97
2023-01-21T19:30:55.037Z,17.50
2023-01-21T19:33:22.768Z,18.13
2023-01-21T19:35:53.948Z,17.17
2023-01-21T19:38:23.149Z,18.37
2023-01-21T19:40:50.634Z,17.70
2023-01-21T19:43:21.341Z,17.33
2023-01-21T19:45:49.177Z,19.20
2023-01-21T19:48:18.412Z,19.17
2023-01-21T19:50:45.177Z,19.97
2023-01-21T19:53:17.193Z,22.03
2023-01-21T19:55:45.670Z,21.10
2023-01-21T19:58:24.527Z,20.50
2023-01-21T20:00:53.665Z,20.57
2023-01-21T20:03:22.788Z,21.40
2023-01-21T20:05:52.041Z,21.37
2023-01-21T20:08:22.420Z,22.63
2023-01-21T20:10:49.563Z,21.33
2023-01-21T20:13:17.659Z,21.47
2023-01-21T20:15:46.102Z,20.63
2023-01-21T20:18:26.868Z,19.87
2023-01-21T20:20:54.108Z,21.77
2023-01-21T20:23:22.727Z,21.97
2023-01-21T20:25:53.430Z,23.03
2023-01-21T20:28:33.666Z,23.17
2023-01-21T20:31:03.420Z,22.63
2023-01-21T20:33:30.248Z,24.27
2023-01-21T20:35:57.151Z,23.43
2023-01-21T20:38:32.617Z,22.63
2023-01-21T20:41:00.485Z,20.73
2023-01-21T20:43:28.970Z,22.80
2023-01-21T20:46:01.988Z,22.63
2023-01-21T20:48:35.090Z,23.37
2023-01-21T20:51:02.837Z,22.10
2023-01-21T20:53:30.751Z,23.40
2023-01-21T20:56:00.384Z,22.83
2023-01-21T20:58:28.070Z,21.10
2023-01-21T21:00:55.274Z,21.80
2023-01-21T21:03:22.069Z,22.47
2023-01-21T21:05:49.406Z,22.87
2023-01-21T21:08:19.077Z,21.23
2023-01-21T21:10:46.767Z,20.43
2023-01-21T21:13:14.244Z,23.40
2023-01-21T21:15:42.062Z,21.63
2023-01-21T21:18:14.739Z,21.67
2023-01-21T21:20:42.030Z,26.52
2023-01-21T21:23:14.018Z,25.07
2023-01-21T21:25:50.512Z,23.03
2023-01-21T21:28:18.383Z,21.43
2023-01-21T21:30:45.245Z,22.33
2023-01-21T21:33:18.638Z,21.53
2023-01-21T21:35:46.722Z,22.50
2023-01-21T21:38:21.648Z,23.30
2023-01-21T21:40:52.925Z,20.70
2023-01-21T21:43:33.634Z,20.63
2023-01-21T21:46:26.848Z,22.40
2023-01-21T21:48:53.840Z,22.17
2023-01-21T21:51:26.962Z,22.93
2023-01-21T21:53:53.810Z,21.90
2023-01-21T21:56:23.632Z,24.13
2023-01-21T21:58:51.359Z,22.37
2023-01-21T22:01:23.742Z,22.23
2023-01-21T22:03:50.935Z,23.33
2023-01-21T22:06:19.580Z,22.73
2023-01-21T22:08:46.574Z,22.73
2023-01-21T22:11:15.613Z,23.00
2023-01-21T22:13:43.576Z,23.27
2023-01-21T22:16:13.887Z,23.47
2023-01-21T22:18:41.274Z,21.40
2023-01-21T22:21:14.598Z,21.73
2023-01-21T22:23:41.708Z,22.20
2023-01-21T22:26:13.041Z,22.37
2023-01-21T22:28:40.988Z,23.27
2023-01-21T22:31:11.628Z,23.33
2023-01-21T22:33:39.294Z,21.27
2023-01-21T22:36:09.415Z,21.77
2023-01-21T22:38:38.933Z,21.10
2023-01-21T22:41:07.988Z,21.67
2023-01-21T22:43:35.138Z,22.63
2023-01-21T22:46:02.352Z,23.27
2023-01-21T22:48:31.511Z,22.40
2023-01-21T22:51:00.248Z,21.97
2023-01-21T22:53:28.049Z,21.90
2023-01-21T22:55:59.463Z,22.07
2023-01-21T22:58:27.229Z,22.40
2023-01-21T23:00:55.160Z,21.60
2023-01-21T23:03:22.845Z,23.17
2023-01-21T23:05:49.872Z,23.00
2023-01-21T23:08:17.516Z,22.47
2023-01-21T23:10:45.537Z,22.73
2023-01-21T23:13:16.398Z,22.03
2023-01-21T23:15:45.305Z,21.43
2023-01-21T23:18:14.061Z,22.87
2023-01-21T23:20:42.081Z,21.70
2023-01-21T23:23:09.984Z,22.10
2023-01-21T23:25:40.996Z,22.47
2023-01-21T23:28:07.902Z,22.07
2023-01-21T23:30:35.049Z,21.97
2023-01-21T23:33:02.117Z,21.27
2023-01-21T23:35:28.909Z,22.50
2023-01-21T23:37:55.615Z,21.53
2023-01-21T23:40:22.606Z,20.67
2023-01-21T23:42:49.998Z,22.50
2023-01-21T23:45:17.462Z,21.70
2023-01-21T23:47:44.305Z,21.60
2023-01-21T23:50:12.869Z,21.17
2023-01-21T23:52:40.245Z,22.27
2023-01-21T23:55:09.534Z,20.77
2023-01-21T23:57:36.974Z,20.00
